TimeCST,TemperatureF,Dew PointF,Humidity,Sea Level PressureIn,VisibilityMPH,Wind Direction,Wind SpeedMPH,Gust SpeedMPH,PrecipitationIn,Events,Conditions,WindDirDegrees,DateUTC
12:15 AM,9.9,4.5,79,30.17,10.0,WSW,3.5,-,N/A,,Clear,250,2013-01-04 06:15:00
12:35 AM,12.0,5.7,76,30.16,10.0,West,3.5,-,N/A,,Clear,260,2013-01-04 06:35:00
12:55 AM,9.5,4.8,81,30.17,10.0,West,3.5,-,N/A,,Clear,270,2013-01-04 06:55:00
1:35 AM,9.5,4.6,81,30.14,10.0,West,4.6,-,N/A,,Clear,270,2013-01-04 07:35:00
1:55 AM,9.1,4.5,81,30.14,10.0,West,3.5,-,N/A,,Clear,280,2013-01-04 07:55:00
2:15 AM,8.6,4.1,82,30.14,10.0,West,3.5,-,N/A,,Clear,270,2013-01-04 08:15:00
2:35 AM,8.4,3.9,82,30.14,10.0,West,3.5,-,N/A,,Clear,280,2013-01-04 08:35:00
2:55 AM,9.1,3.9,79,30.14,10.0,West,4.6,-,N/A,,Clear,280,2013-01-04 08:55:00
3:15 AM,10.2,4.8,79,30.14,10.0,West,4.6,-,N/A,,Clear,270,2013-01-04 09:15:00
6:15 AM,8.8,3.7,80,30.12,10.0,WNW,4.6,-,N/A,,Clear,290,2013-01-04 12:15:00
6:35 AM,8.8,4.1,81,30.12,10.0,West,5.8,-,N/A,,Clear,280,2013-01-04 12:35:00
6:55 AM,10.8,4.8,77,30.12,10.0,West,5.8,-,N/A,,Clear,270,2013-01-04 12:55:00
7:15 AM,10.4,4.5,77,30.12,10.0,WSW,3.5,-,N/A,,Clear,250,2013-01-04 13:15:00
7:35 AM,9.7,3.9,77,30.12,10.0,Calm,Calm,-,N/A,,Clear,0,2013-01-04 13:35:00
7:55 AM,8.2,3.0,79,30.13,10.0,WNW,3.5,-,N/A,,Clear,290,2013-01-04 13:55:00
8:15 AM,9.5,3.7,77,30.13,10.0,West,3.5,-,N/A,,Clear,270,2013-01-04 14:15:00
8:35 AM,9.7,3.7,77,30.14,10.0,Calm,Calm,-,N/A,,Clear,0,2013-01-04 14:35:00
8:55 AM,11.7,5.0,75,30.14,10.0,Calm,Calm,-,N/A,,Clear,0,2013-01-04 14:55:00
9:15 AM,14.7,7.3,73,30.14,10.0,WNW,4.6,-,N/A,,Clear,300,2013-01-04 15:15:00
9:35 AM,17.6,9.1,69,30.14,10.0,WNW,3.5,-,N/A,,Clear,300,2013-01-04 15:35:00
9:55 AM,20.3,9.5,63,30.14,10.0,West,6.9,-,N/A,,Clear,280,2013-01-04 15:55:00
10:15 AM,23.0,10.8,60,30.14,10.0,West,5.8,-,N/A,,Clear,280,2013-01-04 16:15:00
10:35 AM,25.0,11.5,57,30.14,10.0,WNW,5.8,-,N/A,,Clear,290,2013-01-04 16:35:00
10:55 AM,27.3,12.6,54,30.15,10.0,WNW,5.8,-,N/A,,Clear,290,2013-01-04 16:55:00
11:15 AM,30.4,12.6,48,30.15,10.0,WNW,4.6,-,N/A,,Clear,290,2013-01-04 17:15:00
11:35 AM,32.5,12.9,44,30.14,10.0,West,4.6,-,N/A,,Clear,280,2013-01-04 17:35:00
11:55 AM,34.3,12.7,41,30.13,10.0,WNW,5.8,-,N/A,,Clear,290,2013-01-04 17:55:00
12:15 PM,35.6,13.8,41,30.11,10.0,West,4.6,-,N/A,,Clear,280,2013-01-04 18:15:00
12:35 PM,37.6,14.5,39,30.10,10.0,West,3.5,-,N/A,,Clear,270,2013-01-04 18:35:00
12:55 PM,38.1,15.6,40,30.09,10.0,WNW,4.6,-,N/A,,Clear,300,2013-01-04 18:55:00
1:15 PM,39.4,16.0,39,30.09,10.0,West,3.5,-,N/A,,Clear,280,2013-01-04 19:15:00
1:35 PM,40.5,16.5,38,30.08,10.0,Calm,Calm,-,N/A,,Clear,0,2013-01-04 19:35:00
1:55 PM,41.9,15.8,35,30.08,10.0,West,4.6,-,N/A,,Clear,260,2013-01-04 19:55:00
2:15 PM,42.8,15.1,33,30.07,10.0,West,4.6,-,N/A,,Clear,260,2013-01-04 20:15:00
2:35 PM,42.8,15.6,33,30.07,10.0,WSW,4.6,-,N/A,,Clear,240,2013-01-04 20:35:00
2:55 PM,43.0,15.6,33,30.07,10.0,WSW,5.8,-,N/A,,Clear,240,2013-01-04 20:55:00
3:15 PM,43.5,16.9,34,30.05,10.0,West,3.5,-,N/A,,Clear,260,2013-01-04 21:15:00
3:35 PM,43.7,17.4,35,30.05,10.0,West,4.6,-,N/A,,Clear,270,2013-01-04 21:35:00
3:55 PM,43.3,16.7,34,30.05,10.0,West,3.5,-,N/A,,Clear,260,2013-01-04 21:55:00
4:15 PM,43.3,18.1,36,30.05,10.0,Calm,Calm,-,N/A,,Clear,0,2013-01-04 22:15:00
4:35 PM,42.6,18.9,39,30.05,10.0,Calm,Calm,-,N/A,,Clear,0,2013-01-04 22:35:00
4:55 PM,41.4,18.1,39,30.04,10.0,Calm,Calm,-,N/A,,Clear,0,2013-01-04 22:55:00
5:35 PM,33.6,17.4,52,30.03,10.0,Calm,Calm,-,N/A,,Clear,0,2013-01-04 23:35:00
5:55 PM,31.1,17.2,57,30.03,10.0,Calm,Calm,-,N/A,,Clear,0,2013-01-04 23:55:00
6:15 PM,28.4,16.7,62,30.03,10.0,Calm,Calm,-,N/A,,Clear,0,2013-01-05 00:15:00
6:35 PM,27.5,16.7,64,30.03,10.0,Calm,Calm,-,N/A,,Clear,0,2013-01-05 00:35:00
6:55 PM,26.4,16.9,67,30.03,10.0,Calm,Calm,-,N/A,,Clear,0,2013-01-05 00:55:00
7:15 PM,24.1,15.8,71,30.03,10.0,Calm,Calm,-,N/A,,Clear,0,2013-01-05 01:15:00
7:35 PM,23.4,15.4,72,30.04,10.0,Calm,Calm,-,N/A,,Clear,0,2013-01-05 01:35:00
7:55 PM,23.4,16.7,76,30.04,10.0,Calm,Calm,-,N/A,,Clear,0,2013-01-05 01:55:00
8:15 PM,25.3,17.6,72,30.04,10.0,Calm,Calm,-,N/A,,Clear,0,2013-01-05 02:15:00
8:35 PM,19.9,14.9,81,30.04,10.0,WNW,3.5,-,N/A,,Clear,290,2013-01-05 02:35:00
8:55 PM,19.8,14.5,80,30.04,10.0,SW,4.6,-,N/A,,Clear,230,2013-01-05 02:55:00
9:15 PM,18.9,14.2,82,30.03,10.0,WNW,3.5,-,N/A,,Clear,300,2013-01-05 03:15:00
9:35 PM,19.8,15.4,83,30.03,10.0,WNW,3.5,-,N/A,,Clear,290,2013-01-05 03:35:00
9:55 PM,17.2,13.8,86,30.03,10.0,WSW,4.6,-,N/A,,Clear,250,2013-01-05 03:55:00
10:15 PM,20.1,15.1,81,30.03,10.0,SW,9.2,-,N/A,,Clear,220,2013-01-05 04:15:00
10:35 PM,20.3,14.7,79,30.03,10.0,Calm,Calm,-,N/A,,Clear,0,2013-01-05 04:35:00
10:55 PM,18.7,13.6,81,30.02,10.0,West,3.5,-,N/A,,Clear,270,2013-01-05 04:55:00
11:15 PM,19.6,14.4,80,30.01,10.0,Calm,Calm,-,N/A,,Clear,0,2013-01-05 05:15:00
11:35 PM,18.3,13.6,82,30.01,10.0,WNW,4.6,-,N/A,,Clear,300,2013-01-05 05:35:00
11:55 PM,20.1,14.9,80,30.01,10.0,WNW,11.5,-,N/A,,Clear,300,2013-01-05 05:55:00